Terminal Aerodrome Forecast
Issued by NWS

Home | Current Version | Previous Version | Text Only | Print | Product List | Glossary On
Versions: 1 2 3 4 5 6 7 8 9 10 11 12 13 14 15 16 17
000
FTUS46 KMTR 021739
TAFSTS
TAF
KSTS 021739Z 0218/0318 17005KT P6SM FEW200
     FM022100 19010KT P6SM SCT200
     FM030300 18006KT P6SM SKC
     FM030600 18004KT P6SM BKN010
     FM030900 VRB03KT P6SM OVC008=

USA.gov is the U.S. government's official web portal to all federal, state and local government web resources and services.